Time;durP1;ratioP1;P1;durP2;ratioP2;P2;SDS_P1;SDS_P2;PMS_P1;PMS_P2;Temp;Humidity;BMP_temperature;BMP_pressure;BME280_temperature;BME280_humidity;BME280_pressure;Samples;Min_cycle;Max_cycle;Signal;HPM_P1;HPM_P2
2023/12/25 00:02:00;;;;;;;;;;;17.20;45.80;;;;;;1614811;73;753;-72
2023/12/25 00:04:02;;;;;;;;;;;17.20;45.80;;;;;;1600675;73;1188;-72
2023/12/25 00:06:04;;;;;;;;;;;17.20;45.90;;;;;;1595053;73;680;-69
2023/12/25 00:08:06;;;;;;;;;;;17.20;45.80;;;;;;1606902;73;745;-71
2023/12/25 00:10:08;;;;;;;;;;;17.20;45.80;;;;;;1597096;73;645;-70
2023/12/25 00:12:10;;;;;;;;;;;17.20;45.80;;;;;;1596315;73;731;-69
2023/12/25 00:14:12;;;;;;;;;;;17.20;45.90;;;;;;1594729;73;1158;-71
2023/12/25 00:16:15;;;;;;;;;;;17.20;45.90;;;;;;1595178;73;1935;-71
2023/12/25 00:18:16;;;;;;;;;;;17.20;45.90;;;;;;1604394;73;791;-74
2023/12/25 00:20:18;;;;;;;;;;;17.30;46.00;;;;;;1592712;73;767;-73
2023/12/25 00:22:20;;;;;;;;;;;17.20;45.90;;;;;;1593847;73;733;-72
2023/12/25 00:24:22;;;;;;;;;;;17.20;45.90;;;;;;1593149;73;1159;-72
2023/12/25 00:26:24;;;;;;;;;;;17.20;45.90;;;;;;1597447;73;863;-72
2023/12/25 00:28:26;;;;;;;;;;;17.20;45.80;;;;;;1595761;73;765;-69
2023/12/25 00:30:27;;;;;;;;;;;17.20;45.80;;;;;;1596185;73;1539;-72
2023/12/25 00:32:29;;;;;;;;;;;17.20;45.80;;;;;;1602880;73;806;-74
2023/12/25 00:34:31;;;;;;;;;;;17.30;46.00;;;;;;1590208;73;1223;-71
2023/12/25 00:36:33;;;;;;;;;;;17.20;45.80;;;;;;1612419;73;1939;-70
2023/12/25 00:38:35;;;;;;;;;;;17.20;45.70;;;;;;1590344;73;779;-73
2023/12/25 00:40:37;;;;;;;;;;;17.20;45.80;;;;;;1597230;73;758;-72
2023/12/25 00:42:39;;;;;;;;;;;17.20;45.80;;;;;;1602877;73;775;-70
2023/12/25 00:44:41;;;;;;;;;;;17.20;45.80;;;;;;1607161;73;1303;-70
2023/12/25 00:46:43;;;;;;;;;;;17.20;45.80;;;;;;1600876;73;748;-72
2023/12/25 00:48:44;;;;;;;;;;;17.30;45.90;;;;;;1589334;73;775;-74
2023/12/25 00:50:46;;;;;;;;;;;17.20;45.70;;;;;;1598584;73;778;-72
2023/12/25 00:52:48;;;;;;;;;;;17.20;45.70;;;;;;1597110;73;791;-72
2023/12/25 00:54:50;;;;;;;;;;;17.20;45.80;;;;;;1602364;73;1176;-74
2023/12/25 00:56:52;;;;;;;;;;;17.20;45.80;;;;;;1593529;73;1962;-72
2023/12/25 00:58:54;;;;;;;;;;;17.20;45.70;;;;;;1609159;73;756;-69
2023/12/25 01:00:56;;;;;;;;;;;17.20;45.70;;;;;;1599796;73;768;-72
2023/12/25 01:02:59;;;;;;;;;;;17.20;45.80;;;;;;1603321;73;647;-73
2023/12/25 01:05:01;;;;;;;;;;;17.20;45.70;;;;;;1604068;73;1171;-72
2023/12/25 01:07:02;;;;;;;;;;;17.20;45.70;;;;;;1605570;73;740;-69
2023/12/25 01:09:04;;;;;;;;;;;17.20;45.70;;;;;;1592081;73;764;-72
2023/12/25 01:11:06;;;;;;;;;;;17.20;45.70;;;;;;1599620;73;790;-71
2023/12/25 01:13:08;;;;;;;;;;;17.20;45.70;;;;;;1598124;73;772;-72
2023/12/25 01:15:10;;;;;;;;;;;17.20;45.70;;;;;;1606926;73;1171;-69
2023/12/25 01:17:12;;;;;;;;;;;17.30;45.90;;;;;;1573897;74;1934;-71
2023/12/25 01:19:14;;;;;;;;;;;17.20;45.70;;;;;;1599768;73;714;-72
2023/12/25 01:21:17;;;;;;;;;;;17.20;45.70;;;;;;1609369;73;758;-69
2023/12/25 01:23:19;;;;;;;;;;;17.20;45.80;;;;;;1605082;73;674;-72
2023/12/25 01:25:20;;;;;;;;;;;17.20;45.70;;;;;;1600075;73;1448;-72
2023/12/25 01:27:22;;;;;;;;;;;17.20;45.70;;;;;;1591579;73;753;-71
2023/12/25 01:29:24;;;;;;;;;;;17.20;45.70;;;;;;1603955;73;755;-72
2023/12/25 01:31:26;;;;;;;;;;;17.20;45.70;;;;;;1603795;73;741;-72
2023/12/25 01:33:28;;;;;;;;;;;17.20;45.70;;;;;;1599013;73;786;-71
2023/12/25 01:35:30;;;;;;;;;;;17.20;45.70;;;;;;1608782;73;1932;-72
2023/12/25 01:37:32;;;;;;;;;;;17.20;45.70;;;;;;1598961;73;836;-68
2023/12/25 01:39:34;;;;;;;;;;;17.20;45.70;;;;;;1599225;73;761;-72
2023/12/25 01:41:35;;;;;;;;;;;17.20;45.70;;;;;;1602897;73;629;-72
2023/12/25 01:43:37;;;;;;;;;;;17.20;45.70;;;;;;1598528;73;769;-72
2023/12/25 01:45:39;;;;;;;;;;;17.20;45.70;;;;;;1617666;73;1146;-69
2023/12/25 01:47:41;;;;;;;;;;;17.30;45.80;;;;;;1596723;73;792;-72
2023/12/25 01:49:43;;;;;;;;;;;17.20;45.70;;;;;;1604721;73;791;-73
2023/12/25 01:51:45;;;;;;;;;;;17.20;45.70;;;;;;1602999;73;755;-73
2023/12/25 01:53:47;;;;;;;;;;;17.20;45.70;;;;;;1615504;73;801;-72
2023/12/25 01:55:48;;;;;;;;;;;17.20;45.70;;;;;;1600188;73;1929;-73
2023/12/25 01:57:50;;;;;;;;;;;17.20;45.60;;;;;;1616366;73;815;-73
2023/12/25 01:59:53;;;;;;;;;;;17.20;45.70;;;;;;1592653;73;777;-72
2023/12/25 02:01:55;;;;;;;;;;;17.20;45.70;;;;;;1610700;73;944;-72
2023/12/25 02:03:56;;;;;;;;;;;17.20;45.70;;;;;;1603473;73;1189;-70
2023/12/25 02:05:58;;;;;;;;;;;17.20;45.70;;;;;;1599176;73;986;-69
2023/12/25 02:08:00;;;;;;;;;;;17.20;45.70;;;;;;1605770;73;966;-71
2023/12/25 02:10:02;;;;;;;;;;;17.20;45.70;;;;;;1608885;73;772;-72
2023/12/25 02:12:04;;;;;;;;;;;17.20;45.60;;;;;;1603838;73;780;-72
2023/12/25 02:14:06;;;;;;;;;;;17.20;45.70;;;;;;1602678;73;1162;-71
2023/12/25 02:16:08;;;;;;;;;;;17.20;45.70;;;;;;1598672;73;1941;-71
2023/12/25 02:18:10;;;;;;;;;;;17.20;45.70;;;;;;1605564;73;634;-71
2023/12/25 02:20:12;;;;;;;;;;;17.20;45.60;;;;;;1602036;73;755;-68
2023/12/25 02:22:14;;;;;;;;;;;17.20;45.60;;;;;;1600345;73;1485;-75
2023/12/25 02:24:16;;;;;;;;;;;17.30;45.70;;;;;;1597025;73;1179;-70
2023/12/25 02:26:17;;;;;;;;;;;17.30;45.70;;;;;;1610055;73;643;-72
2023/12/25 02:28:19;;;;;;;;;;;17.20;45.60;;;;;;1594812;73;675;-72
2023/12/25 02:30:21;;;;;;;;;;;17.20;45.60;;;;;;1600716;73;748;-69
2023/12/25 02:32:23;;;;;;;;;;;17.30;45.70;;;;;;1614559;73;772;-68
2023/12/25 02:34:25;;;;;;;;;;;17.20;45.50;;;;;;1594094;73;1136;-71
2023/12/25 02:36:27;;;;;;;;;;;17.30;45.60;;;;;;1601816;73;1922;-72
2023/12/25 02:38:29;;;;;;;;;;;17.30;45.60;;;;;;1595140;73;692;-72
2023/12/25 02:40:31;;;;;;;;;;;17.30;45.50;;;;;;1593999;73;775;-72
2023/12/25 02:42:32;;;;;;;;;;;17.30;45.50;;;;;;1589666;73;753;-74
2023/12/25 02:44:34;;;;;;;;;;;17.30;45.40;;;;;;1609848;73;1234;-72
2023/12/25 02:46:36;;;;;;;;;;;17.30;45.50;;;;;;1604975;73;737;-69
2023/12/25 02:48:38;;;;;;;;;;;17.30;45.50;;;;;;1609878;73;777;-69
2023/12/25 02:50:40;;;;;;;;;;;17.30;45.50;;;;;;1593304;73;788;-68
2023/12/25 02:52:42;;;;;;;;;;;17.30;45.50;;;;;;1609716;73;757;-67
2023/12/25 02:54:44;;;;;;;;;;;17.30;45.50;;;;;;1593261;73;1196;-68
2023/12/25 02:56:46;;;;;;;;;;;17.30;45.40;;;;;;1616496;73;1932;-72
2023/12/25 02:58:47;;;;;;;;;;;17.30;45.40;;;;;;1604693;73;791;-74
2023/12/25 03:00:50;;;;;;;;;;;17.30;45.20;;;;;;1604660;73;772;-71
2023/12/25 03:02:52;;;;;;;;;;;17.40;45.20;;;;;;1600561;73;787;-74
2023/12/25 03:04:54;;;;;;;;;;;17.30;45.20;;;;;;1613095;73;1166;-69
2023/12/25 03:06:55;;;;;;;;;;;17.30;45.20;;;;;;1603615;73;768;-71
2023/12/25 03:08:57;;;;;;;;;;;17.30;45.20;;;;;;1605155;73;753;-71
2023/12/25 03:11:00;;;;;;;;;;;17.30;45.30;;;;;;1594574;73;783;-71
2023/12/25 03:13:02;;;;;;;;;;;17.30;45.20;;;;;;1603917;73;773;-73
2023/12/25 03:15:04;;;;;;;;;;;17.30;45.20;;;;;;1606241;73;1239;-71
2023/12/25 03:17:06;;;;;;;;;;;17.30;45.20;;;;;;1597371;73;1940;-71
2023/12/25 03:19:08;;;;;;;;;;;17.30;45.20;;;;;;1599092;73;1419;-69
2023/12/25 03:21:10;;;;;;;;;;;17.40;45.10;;;;;;1608704;73;788;-68
2023/12/25 03:23:11;;;;;;;;;;;17.40;45.20;;;;;;1598568;73;764;-71
2023/12/25 03:25:13;;;;;;;;;;;17.40;45.20;;;;;;1601260;73;1168;-71
2023/12/25 03:27:15;;;;;;;;;;;17.40;45.20;;;;;;1607818;73;766;-68
2023/12/25 03:29:17;;;;;;;;;;;17.30;45.20;;;;;;1600160;73;774;-70
2023/12/25 03:31:19;;;;;;;;;;;17.40;45.20;;;;;;1603575;73;747;-70
2023/12/25 03:33:21;;;;;;;;;;;17.40;45.10;;;;;;1602923;73;770;-71
2023/12/25 03:35:23;;;;;;;;;;;17.30;45.20;;;;;;1604021;73;1175;-72
2023/12/25 03:37:24;;;;;;;;;;;17.40;45.10;;;;;;1592835;73;1944;-72
2023/12/25 03:39:26;;;;;;;;;;;17.40;45.10;;;;;;1613029;73;775;-73
2023/12/25 03:41:28;;;;;;;;;;;17.40;45.10;;;;;;1599006;73;786;-73
2023/12/25 03:43:30;;;;;;;;;;;17.40;45.10;;;;;;1601272;73;796;-69
2023/12/25 03:45:32;;;;;;;;;;;17.30;45.20;;;;;;1594527;73;1238;-70
2023/12/25 03:47:34;;;;;;;;;;;17.30;45.00;;;;;;1600725;73;749;-71
2023/12/25 03:49:36;;;;;;;;;;;17.30;45.00;;;;;;1593044;73;780;-72
2023/12/25 03:51:38;;;;;;;;;;;17.30;45.10;;;;;;1599639;73;780;-72
2023/12/25 03:53:40;;;;;;;;;;;17.30;45.00;;;;;;1596650;73;652;-72
2023/12/25 03:55:42;;;;;;;;;;;17.40;45.00;;;;;;1607746;73;1153;-69
2023/12/25 03:57:44;;;;;;;;;;;17.40;45.00;;;;;;1621074;73;1928;-73
2023/12/25 03:59:45;;;;;;;;;;;17.30;45.00;;;;;;1600899;73;780;-70
2023/12/25 04:01:47;;;;;;;;;;;17.40;45.00;;;;;;1613522;73;806;-73
2023/12/25 04:03:49;;;;;;;;;;;17.40;45.00;;;;;;1601898;73;775;-73
2023/12/25 04:05:51;;;;;;;;;;;17.40;45.00;;;;;;1595384;73;794;-70
2023/12/25 04:07:53;;;;;;;;;;;17.40;45.10;;;;;;1598138;73;782;-72
2023/12/25 04:09:55;;;;;;;;;;;17.40;45.10;;;;;;1595520;73;749;-72
2023/12/25 04:11:57;;;;;;;;;;;17.40;45.10;;;;;;1599666;73;830;-73
2023/12/25 04:13:59;;;;;;;;;;;17.30;45.00;;;;;;1606613;73;1435;-71
2023/12/25 04:16:01;;;;;;;;;;;17.40;45.00;;;;;;1605708;73;643;-72
2023/12/25 04:18:02;;;;;;;;;;;17.30;45.00;;;;;;1610557;73;1920;-69
2023/12/25 04:20:04;;;;;;;;;;;17.40;45.00;;;;;;1604675;73;759;-72
2023/12/25 04:22:06;;;;;;;;;;;17.40;45.00;;;;;;1594646;73;795;-72
2023/12/25 04:24:08;;;;;;;;;;;17.40;45.10;;;;;;1607878;73;1178;-72
2023/12/25 04:26:10;;;;;;;;;;;17.40;45.00;;;;;;1607082;73;779;-72
2023/12/25 04:28:12;;;;;;;;;;;17.30;45.00;;;;;;1608335;73;737;-73
2023/12/25 04:30:14;;;;;;;;;;;17.30;45.00;;;;;;1596183;73;791;-72
2023/12/25 04:32:16;;;;;;;;;;;17.40;45.00;;;;;;1593105;73;807;-70
2023/12/25 04:34:18;;;;;;;;;;;17.40;45.00;;;;;;1593732;73;1167;-70
2023/12/25 04:36:20;;;;;;;;;;;17.40;45.00;;;;;;1600467;73;760;-70
2023/12/25 04:38:22;;;;;;;;;;;17.30;45.00;;;;;;1601187;73;1943;-68
2023/12/25 04:40:24;;;;;;;;;;;17.40;45.00;;;;;;1593881;73;770;-71
2023/12/25 04:42:25;;;;;;;;;;;17.40;45.00;;;;;;1609173;73;790;-71
2023/12/25 04:44:27;;;;;;;;;;;17.40;45.00;;;;;;1605569;73;1230;-71
2023/12/25 04:46:29;;;;;;;;;;;17.40;45.00;;;;;;1611853;73;811;-72
2023/12/25 04:48:31;;;;;;;;;;;17.30;45.00;;;;;;1607594;73;820;-73
2023/12/25 04:50:36;;;;;;;;;;;17.40;45.00;;;;;;1610520;73;753;-73
2023/12/25 04:52:38;;;;;;;;;;;17.40;45.00;;;;;;1596158;73;832;-72
2023/12/25 04:54:40;;;;;;;;;;;17.30;45.00;;;;;;1600542;73;1190;-70
2023/12/25 04:56:42;;;;;;;;;;;17.30;45.00;;;;;;1616046;73;817;-70
2023/12/25 04:58:44;;;;;;;;;;;17.60;45.10;;;;;;1608185;73;781;-72
2023/12/25 05:00:46;;;;;;;;;;;17.40;45.00;;;;;;1612456;73;782;-69
2023/12/25 05:02:48;;;;;;;;;;;17.40;45.00;;;;;;1603803;73;792;-69
2023/12/25 05:04:49;;;;;;;;;;;17.40;45.00;;;;;;1608980;73;1163;-72
2023/12/25 05:06:51;;;;;;;;;;;17.40;45.00;;;;;;1591787;73;791;-71
2023/12/25 05:08:53;;;;;;;;;;;17.40;45.00;;;;;;1606741;73;774;-72
2023/12/25 05:10:55;;;;;;;;;;;17.40;45.00;;;;;;1603630;73;1320;-74
2023/12/25 05:12:57;;;;;;;;;;;17.40;45.00;;;;;;1596939;73;785;-72
2023/12/25 05:14:59;;;;;;;;;;;17.40;45.00;;;;;;1612922;73;1138;-70
2023/12/25 05:17:01;;;;;;;;;;;17.40;45.00;;;;;;1613435;73;1938;-72
2023/12/25 05:19:03;;;;;;;;;;;17.30;45.00;;;;;;1613384;73;758;-71
2023/12/25 05:21:06;;;;;;;;;;;17.40;45.00;;;;;;1601655;73;772;-72
2023/12/25 05:23:08;;;;;;;;;;;17.40;45.00;;;;;;1602165;73;730;-72
2023/12/25 05:25:10;;;;;;;;;;;17.40;45.00;;;;;;1605565;73;1171;-72
2023/12/25 05:27:12;;;;;;;;;;;17.40;45.00;;;;;;1614827;73;934;-72
2023/12/25 05:29:14;;;;;;;;;;;17.40;45.00;;;;;;1613055;73;815;-72
2023/12/25 05:31:16;;;;;;;;;;;17.40;45.00;;;;;;1599420;73;758;-72
2023/12/25 05:33:19;;;;;;;;;;;17.40;45.00;;;;;;1606796;73;797;-70
2023/12/25 05:35:21;;;;;;;;;;;17.40;44.90;;;;;;1610063;73;1144;-71
2023/12/25 05:37:23;;;;;;;;;;;17.30;44.90;;;;;;1600215;73;1935;-69
2023/12/25 05:39:25;;;;;;;;;;;17.40;44.90;;;;;;1593967;73;669;-72
2023/12/25 05:41:27;;;;;;;;;;;17.40;44.90;;;;;;1597128;73;743;-72
2023/12/25 05:43:29;;;;;;;;;;;17.40;45.00;;;;;;1598398;73;807;-74
2023/12/25 05:45:31;;;;;;;;;;;17.30;45.00;;;;;;1608659;73;1248;-72
2023/12/25 05:47:33;;;;;;;;;;;17.40;45.00;;;;;;1601824;73;772;-71
2023/12/25 05:49:35;;;;;;;;;;;17.30;45.00;;;;;;1612324;73;739;-72
2023/12/25 05:51:36;;;;;;;;;;;17.30;45.00;;;;;;1605771;73;765;-72
2023/12/25 05:53:38;;;;;;;;;;;17.40;45.00;;;;;;1601321;73;774;-72
2023/12/25 05:55:40;;;;;;;;;;;17.30;44.90;;;;;;1609571;73;1160;-72
2023/12/25 05:57:42;;;;;;;;;;;17.40;45.00;;;;;;1601228;73;1942;-71
2023/12/25 05:59:44;;;;;;;;;;;17.40;44.90;;;;;;1592434;73;795;-69
2023/12/25 06:01:46;;;;;;;;;;;17.30;45.00;;;;;;1608431;73;764;-72
2023/12/25 06:03:49;;;;;;;;;;;17.30;44.90;;;;;;1607861;73;797;-71
2023/12/25 06:05:51;;;;;;;;;;;17.40;44.90;;;;;;1596462;73;1146;-73
2023/12/25 06:07:52;;;;;;;;;;;17.30;44.90;;;;;;1597749;73;1506;-71
2023/12/25 06:09:54;;;;;;;;;;;17.30;45.00;;;;;;1597570;73;742;-72
2023/12/25 06:11:56;;;;;;;;;;;17.40;44.80;;;;;;1603417;73;804;-71
2023/12/25 06:13:58;;;;;;;;;;;17.20;44.80;;;;;;1594147;73;1159;-72
2023/12/25 06:16:00;;;;;;;;;;;17.40;44.90;;;;;;1612534;73;795;-71
2023/12/25 06:18:02;;;;;;;;;;;17.30;44.90;;;;;;1601716;72;1925;-70
2023/12/25 06:20:06;;;;;;;;;;;17.40;45.00;;;;;;1609233;73;772;-71
2023/12/25 06:22:08;;;;;;;;;;;17.40;44.90;;;;;;1602107;73;728;-72
2023/12/25 06:24:09;;;;;;;;;;;17.40;44.90;;;;;;1596168;73;1190;-69
2023/12/25 06:26:11;;;;;;;;;;;17.30;45.00;;;;;;1597557;73;737;-70
2023/12/25 06:28:13;;;;;;;;;;;17.40;44.90;;;;;;1615127;73;785;-72
2023/12/25 06:30:15;;;;;;;;;;;17.40;44.80;;;;;;1600557;73;742;-72
2023/12/25 06:32:17;;;;;;;;;;;17.40;44.90;;;;;;1598451;73;778;-73
2023/12/25 06:34:19;;;;;;;;;;;17.40;44.90;;;;;;1601175;73;1154;-71
2023/12/25 06:36:21;;;;;;;;;;;17.40;44.90;;;;;;1606150;73;694;-73
2023/12/25 06:38:23;;;;;;;;;;;17.40;45.00;;;;;;1604412;73;1969;-71
2023/12/25 06:40:24;;;;;;;;;;;17.40;45.00;;;;;;1602303;73;779;-70
2023/12/25 06:42:26;;;;;;;;;;;17.30;44.90;;;;;;1602636;73;779;-71
2023/12/25 06:44:28;;;;;;;;;;;17.40;44.90;;;;;;1606795;73;1252;-69
2023/12/25 06:46:30;;;;;;;;;;;17.40;44.90;;;;;;1606990;73;793;-71
2023/12/25 06:48:32;;;;;;;;;;;17.40;44.80;;;;;;1614289;73;603;-69
2023/12/25 06:50:34;;;;;;;;;;;17.40;44.90;;;;;;1603230;73;766;-69
2023/12/25 06:52:36;;;;;;;;;;;17.40;44.80;;;;;;1607163;73;777;-74
2023/12/25 06:54:38;;;;;;;;;;;17.40;44.90;;;;;;1608938;73;1191;-70
2023/12/25 06:56:39;;;;;;;;;;;17.30;44.90;;;;;;1608863;73;801;-71
2023/12/25 06:58:41;;;;;;;;;;;17.30;44.90;;;;;;1599207;73;1932;-73
2023/12/25 07:00:43;;;;;;;;;;;17.30;44.90;;;;;;1600159;73;777;-69
2023/12/25 07:02:45;;;;;;;;;;;17.30;44.90;;;;;;1607712;73;1419;-70
2023/12/25 07:04:47;;;;;;;;;;;17.40;44.80;;;;;;1596170;73;1156;-71
2023/12/25 07:06:50;;;;;;;;;;;17.40;44.90;;;;;;1599011;73;811;-72
2023/12/25 07:08:52;;;;;;;;;;;17.30;45.00;;;;;;1594401;73;763;-69
2023/12/25 07:10:57;;;;;;;;;;;17.30;44.90;;;;;;1596087;73;716;-74
2023/12/25 07:12:59;;;;;;;;;;;17.30;45.00;;;;;;1585906;73;775;-71
2023/12/25 07:15:01;;;;;;;;;;;17.40;44.90;;;;;;1601201;73;1167;-75
2023/12/25 07:17:06;;;;;;;;;;;17.40;45.00;;;;;;1606965;73;761;-72
2023/12/25 07:19:06;;;;;;;;;;;17.30;45.00;;;;;;1617270;72;1942;-72
2023/12/25 07:21:08;;;;;;;;;;;17.40;44.90;;;;;;1608211;73;782;-73
2023/12/25 07:23:10;;;;;;;;;;;17.40;44.90;;;;;;1601962;73;750;-72
2023/12/25 07:25:12;;;;;;;;;;;17.30;44.90;;;;;;1607172;73;1178;-72
2023/12/25 07:27:14;;;;;;;;;;;17.30;45.00;;;;;;1603936;73;762;-72
2023/12/25 07:29:16;;;;;;;;;;;17.30;45.00;;;;;;1606676;73;773;-70
2023/12/25 07:31:20;;;;;;;;;;;17.40;45.00;;;;;;1613724;73;740;-69
2023/12/25 07:33:22;;;;;;;;;;;17.30;45.00;;;;;;1601878;73;1614;-72
2023/12/25 07:35:26;;;;;;;;;;;17.30;44.90;;;;;;1603685;73;1167;-69
2023/12/25 07:37:27;;;;;;;;;;;17.30;45.00;;;;;;1599990;73;1168;-73
2023/12/25 07:39:29;;;;;;;;;;;17.30;45.00;;;;;;1602842;73;1945;-73
2023/12/25 07:41:31;;;;;;;;;;;17.30;45.00;;;;;;1601237;73;788;-72
2023/12/25 07:43:33;;;;;;;;;;;17.30;45.00;;;;;;1611653;73;749;-69
2023/12/25 07:45:34;;;;;;;;;;;17.30;45.10;;;;;;1607738;73;1198;-71
2023/12/25 07:47:36;;;;;;;;;;;17.30;45.10;;;;;;1603334;73;778;-69
2023/12/25 07:49:38;;;;;;;;;;;17.30;45.10;;;;;;1600663;73;794;-71
2023/12/25 07:51:40;;;;;;;;;;;17.30;45.20;;;;;;1594029;73;663;-68
2023/12/25 07:53:42;;;;;;;;;;;17.30;45.10;;;;;;1599653;73;797;-70
2023/12/25 07:55:44;;;;;;;;;;;17.30;45.10;;;;;;1600629;73;1175;-70
2023/12/25 07:57:46;;;;;;;;;;;17.30;45.10;;;;;;1610265;73;785;-72
2023/12/25 07:59:48;;;;;;;;;;;17.30;45.10;;;;;;1598510;73;1931;-72
2023/12/25 08:01:50;;;;;;;;;;;17.30;45.10;;;;;;1606190;73;785;-71
2023/12/25 08:03:52;;;;;;;;;;;17.40;45.00;;;;;;1587869;73;1170;-69
2023/12/25 08:05:54;;;;;;;;;;;17.30;45.10;;;;;;1608574;73;785;-70
2023/12/25 08:07:56;;;;;;;;;;;17.30;45.20;;;;;;1593169;73;726;-71
2023/12/25 08:09:58;;;;;;;;;;;17.30;45.20;;;;;;1603835;73;737;-69
2023/12/25 08:12:00;;;;;;;;;;;17.30;45.20;;;;;;1595461;73;792;-71
2023/12/25 08:14:01;;;;;;;;;;;17.40;45.20;;;;;;1601894;73;1149;-72
2023/12/25 08:16:03;;;;;;;;;;;17.30;45.20;;;;;;1614457;73;791;-70
2023/12/25 08:18:06;;;;;;;;;;;17.30;45.10;;;;;;1601763;73;1932;-70
2023/12/25 08:20:09;;;;;;;;;;;17.30;45.20;;;;;;1607693;73;756;-70
2023/12/25 08:22:11;;;;;;;;;;;17.30;45.20;;;;;;1601954;73;774;-72
2023/12/25 08:24:13;;;;;;;;;;;17.30;45.20;;;;;;1592534;73;1132;-72
2023/12/25 08:26:15;;;;;;;;;;;17.30;45.20;;;;;;1597793;73;769;-71
2023/12/25 08:28:17;;;;;;;;;;;17.30;45.20;;;;;;1619428;73;751;-72
2023/12/25 08:30:19;;;;;;;;;;;17.30;45.10;;;;;;1605347;73;763;-72
2023/12/25 08:32:21;;;;;;;;;;;17.30;45.20;;;;;;1599625;73;773;-71
2023/12/25 08:34:23;;;;;;;;;;;17.30;45.20;;;;;;1594570;73;1175;-71
2023/12/25 08:36:25;;;;;;;;;;;17.30;45.20;;;;;;1603753;73;632;-73
2023/12/25 08:38:27;;;;;;;;;;;17.30;45.20;;;;;;1597403;73;1919;-74
2023/12/25 08:40:29;;;;;;;;;;;17.30;45.20;;;;;;1603897;73;786;-72
2023/12/25 08:42:31;;;;;;;;;;;17.30;45.20;;;;;;1605994;73;821;-69
2023/12/25 08:44:32;;;;;;;;;;;17.30;45.20;;;;;;1608494;73;1225;-72
2023/12/25 08:46:34;;;;;;;;;;;17.30;45.20;;;;;;1604796;73;789;-71
2023/12/25 08:48:36;;;;;;;;;;;17.30;45.20;;;;;;1598203;73;792;-71
2023/12/25 08:50:38;;;;;;;;;;;17.30;45.20;;;;;;1608405;73;655;-71
2023/12/25 08:52:40;;;;;;;;;;;17.30;45.20;;;;;;1618730;73;786;-72
2023/12/25 08:54:42;;;;;;;;;;;17.30;45.20;;;;;;1605406;73;1170;-70
2023/12/25 08:56:44;;;;;;;;;;;17.30;45.20;;;;;;1598346;73;1416;-72
2023/12/25 08:58:45;;;;;;;;;;;17.30;45.20;;;;;;1597522;73;1942;-72
2023/12/25 09:00:47;;;;;;;;;;;17.30;45.20;;;;;;1608998;73;776;-72
2023/12/25 09:02:49;;;;;;;;;;;17.30;45.20;;;;;;1599077;73;686;-72
2023/12/25 09:04:51;;;;;;;;;;;17.30;45.10;;;;;;1610478;73;1246;-70
2023/12/25 09:06:53;;;;;;;;;;;17.30;45.10;;;;;;1611153;73;794;-74
2023/12/25 09:08:55;;;;;;;;;;;17.30;45.20;;;;;;1593313;73;786;-74
2023/12/25 09:10:57;;;;;;;;;;;17.30;45.20;;;;;;1595632;73;776;-71
2023/12/25 09:12:59;;;;;;;;;;;17.30;45.20;;;;;;1603433;73;750;-71
2023/12/25 09:15:01;;;;;;;;;;;17.40;45.20;;;;;;1609059;73;1172;-71
2023/12/25 09:17:03;;;;;;;;;;;17.30;45.10;;;;;;1607031;73;744;-72
2023/12/25 09:19:04;;;;;;;;;;;17.30;45.10;;;;;;1617911;73;1935;-71
2023/12/25 09:21:06;;;;;;;;;;;17.30;45.20;;;;;;1597636;73;778;-72
2023/12/25 09:23:08;;;;;;;;;;;17.30;45.10;;;;;;1611108;73;784;-71
2023/12/25 09:25:10;;;;;;;;;;;17.30;45.20;;;;;;1607943;73;1182;-71
2023/12/25 09:27:12;;;;;;;;;;;17.30;45.10;;;;;;1595068;73;787;-71
2023/12/25 09:29:14;;;;;;;;;;;17.30;45.10;;;;;;1610101;73;801;-71
2023/12/25 09:31:16;;;;;;;;;;;17.30;45.10;;;;;;1605994;73;750;-72
2023/12/25 09:33:19;;;;;;;;;;;17.30;45.10;;;;;;1614122;73;680;-72
2023/12/25 09:35:21;;;;;;;;;;;17.30;45.00;;;;;;1600898;73;1176;-72
2023/12/25 09:37:25;;;;;;;;;;;17.30;45.10;;;;;;1607483;73;780;-70
2023/12/25 09:39:27;;;;;;;;;;;17.30;45.00;;;;;;1606911;73;1928;-72
2023/12/25 09:41:32;;;;;;;;;;;17.10;44.90;;;;;;1599390;73;799;-72
2023/12/25 09:43:32;;;;;;;;;;;17.30;45.10;;;;;;1602607;73;1566;-70
2023/12/25 09:45:35;;;;;;;;;;;17.30;45.00;;;;;;1596803;73;1171;-71
2023/12/25 09:47:37;;;;;;;;;;;17.30;45.00;;;;;;1611188;73;756;-72
2023/12/25 09:49:39;;;;;;;;;;;17.30;45.00;;;;;;1598058;73;774;-72
2023/12/25 09:51:41;;;;;;;;;;;17.30;45.00;;;;;;1594682;73;1431;-71
2023/12/25 09:53:45;;;;;;;;;;;17.30;45.00;;;;;;1599055;73;751;-71
2023/12/25 09:55:47;;;;;;;;;;;17.30;44.90;;;;;;1598809;73;1442;-72
2023/12/25 09:57:48;;;;;;;;;;;17.30;45.00;;;;;;1597925;73;788;-73
2023/12/25 09:59:55;;;;;;;;;;;17.30;45.00;;;;;;1594674;73;1936;-72
2023/12/25 10:01:55;;;;;;;;;;;17.30;45.00;;;;;;1607821;73;1487;-72
2023/12/25 10:03:56;;;;;;;;;;;17.30;45.00;;;;;;1610850;73;1242;-70
2023/12/25 10:05:58;;;;;;;;;;;17.30;45.00;;;;;;1604323;73;755;-71
2023/12/25 10:08:00;;;;;;;;;;;17.30;44.90;;;;;;1603025;73;775;-71
2023/12/25 10:10:02;;;;;;;;;;;17.30;45.00;;;;;;1597810;73;734;-71
2023/12/25 10:12:04;;;;;;;;;;;17.30;45.00;;;;;;1605903;73;862;-71
2023/12/25 10:14:06;;;;;;;;;;;17.30;44.90;;;;;;1617626;73;1147;-73
2023/12/25 10:16:08;;;;;;;;;;;17.30;45.00;;;;;;1613864;73;757;-73
2023/12/25 10:18:10;;;;;;;;;;;17.30;44.90;;;;;;1606679;73;770;-72
2023/12/25 10:20:13;;;;;;;;;;;17.30;45.00;;;;;;1605724;73;1935;-72
2023/12/25 10:22:16;;;;;;;;;;;17.30;44.90;;;;;;1610095;73;776;-72
2023/12/25 10:24:19;;;;;;;;;;;17.30;44.90;;;;;;1596602;73;1169;-72
2023/12/25 10:26:32;;;;;;;;;;;17.30;44.90;;;;;;1597619;73;768;-72
2023/12/25 10:28:32;;;;;;;;;;;17.20;44.80;;;;;;1615007;73;1505;-72
2023/12/25 10:30:34;;;;;;;;;;;17.30;45.00;;;;;;1596013;73;741;-71
2023/12/25 10:32:36;;;;;;;;;;;17.30;45.00;;;;;;1600760;73;778;-72
2023/12/25 10:34:38;;;;;;;;;;;17.30;44.80;;;;;;1623642;73;1164;-72
2023/12/25 10:36:40;;;;;;;;;;;17.30;45.00;;;;;;1605486;73;798;-71
2023/12/25 10:38:42;;;;;;;;;;;17.30;45.00;;;;;;1590484;73;791;-69
2023/12/25 10:40:44;;;;;;;;;;;17.30;44.90;;;;;;1604821;73;1933;-72
2023/12/25 10:42:48;;;;;;;;;;;17.30;44.90;;;;;;1584969;73;755;-72
2023/12/25 10:44:50;;;;;;;;;;;17.30;44.80;;;;;;1606345;73;1176;-72
2023/12/25 10:46:52;;;;;;;;;;;17.30;44.90;;;;;;1594556;73;822;-69
2023/12/25 10:48:55;;;;;;;;;;;17.30;44.90;;;;;;1598872;73;1552;-72
2023/12/25 10:50:57;;;;;;;;;;;17.30;44.80;;;;;;1610625;73;635;-72
2023/12/25 10:53:00;;;;;;;;;;;17.30;44.80;;;;;;1611870;73;791;-72
2023/12/25 10:55:02;;;;;;;;;;;17.30;44.80;;;;;;1599226;73;1169;-72
2023/12/25 10:57:04;;;;;;;;;;;17.30;44.80;;;;;;1604253;73;750;-72
2023/12/25 10:59:24;;;;;;;;;;;17.30;44.80;;;;;;1597334;73;1931;-69
2023/12/25 11:01:25;;;;;;;;;;;17.30;44.80;;;;;;1601128;73;775;-72
2023/12/25 11:03:28;;;;;;;;;;;17.30;44.80;;;;;;1609753;73;764;-73
2023/12/25 11:05:31;;;;;;;;;;;17.30;44.80;;;;;;1606119;73;1282;-74
2023/12/25 11:07:33;;;;;;;;;;;17.30;44.80;;;;;;1600663;73;750;-69
2023/12/25 11:09:36;;;;;;;;;;;17.30;44.70;;;;;;1610436;73;723;-69
2023/12/25 11:11:39;;;;;;;;;;;17.30;44.70;;;;;;1596135;73;740;-70
2023/12/25 11:13:41;;;;;;;;;;;17.30;44.80;;;;;;1614647;73;796;-72
2023/12/25 11:15:43;;;;;;;;;;;17.30;44.80;;;;;;1601484;73;1248;-71
2023/12/25 11:17:45;;;;;;;;;;;17.30;44.80;;;;;;1608183;73;681;-72
2023/12/25 11:19:47;;;;;;;;;;;17.30;44.80;;;;;;1598595;73;1925;-72
2023/12/25 11:21:49;;;;;;;;;;;17.30;44.80;;;;;;1614085;73;788;-70
2023/12/25 11:23:51;;;;;;;;;;;17.30;44.70;;;;;;1614935;73;763;-70
2023/12/25 11:25:53;;;;;;;;;;;17.30;44.70;;;;;;1601087;73;765;-74
2023/12/25 11:27:55;;;;;;;;;;;17.30;44.80;;;;;;1598081;73;771;-74
2023/12/25 11:30:02;;;;;;;;;;;17.30;44.80;;;;;;1596298;73;755;-71
2023/12/25 11:32:05;;;;;;;;;;;17.30;44.80;;;;;;1612002;72;1851;-68
2023/12/25 11:34:21;;;;;;;;;;;17.30;44.80;;;;;;1597673;73;1852;-70
2023/12/25 11:36:23;;;;;;;;;;;17.30;44.70;;;;;;1600408;73;1683;-71
2023/12/25 11:38:27;;;;;;;;;;;17.30;44.70;;;;;;1634305;71;1116;-71
2023/12/25 11:40:30;;;;;;;;;;;17.30;44.70;;;;;;1594462;73;1970;-72
2023/12/25 11:42:32;;;;;;;;;;;17.30;44.70;;;;;;1599280;73;1454;-72
2023/12/25 11:44:34;;;;;;;;;;;17.30;44.70;;;;;;1603541;73;1419;-72
2023/12/25 11:46:36;;;;;;;;;;;17.30;44.80;;;;;;1605128;73;750;-69
2023/12/25 11:48:38;;;;;;;;;;;17.30;44.80;;;;;;1616123;73;793;-70
2023/12/25 11:50:43;;;;;;;;;;;17.30;44.80;;;;;;1610250;73;807;-68
2023/12/25 11:52:45;;;;;;;;;;;17.30;44.70;;;;;;1605230;73;796;-73
2023/12/25 11:54:47;;;;;;;;;;;17.30;44.70;;;;;;1613091;73;1435;-72
2023/12/25 11:56:49;;;;;;;;;;;17.30;44.70;;;;;;1605703;73;795;-73
2023/12/25 11:58:52;;;;;;;;;;;17.30;44.70;;;;;;1599777;73;789;-71
2023/12/25 12:00:54;;;;;;;;;;;17.30;44.70;;;;;;1593419;73;1949;-73
2023/12/25 12:02:55;;;;;;;;;;;17.40;44.70;;;;;;1608058;73;768;-74
2023/12/25 12:04:57;;;;;;;;;;;17.30;44.70;;;;;;1596081;73;1192;-71
2023/12/25 12:06:59;;;;;;;;;;;17.40;44.80;;;;;;1604494;73;939;-72
2023/12/25 12:09:01;;;;;;;;;;;17.40;44.70;;;;;;1610442;73;761;-72